Time;durP1;ratioP1;P1;durP2;ratioP2;P2;SDS_P1;SDS_P2;PMS_P1;PMS_P2;Temp;Humidity;BMP_temperature;BMP_pressure;BME280_temperature;BME280_humidity;BME280_pressure;Samples;Min_cycle;Max_cycle;Signal;HPM_P1;HPM_P2
2024/01/24 00:01:38;;;;;;;4.37;1.03;;;;;;;;;;5038312;28;20040;-79
2024/01/24 00:04:04;;;;;;;5.83;1.10;;;;;;;;;;5038810;28;20022;-79
2024/01/24 00:06:30;;;;;;;5.63;1.17;;;;;;;;;;5034551;28;20038;-83
2024/01/24 00:08:56;;;;;;;2.27;0.90;;;;;;;;;;5033146;28;20014;-83
2024/01/24 00:11:25;;;;;;;3.07;1.17;;;;;;;;;;5037658;28;20056;-83
2024/01/24 00:13:51;;;;;;;8.00;1.13;;;;;;;;;;5021735;28;20034;-83
2024/01/24 00:16:23;;;;;;;4.57;0.60;;;;;;;;;;5019857;28;20039;-83
2024/01/24 00:18:51;;;;;;;2.70;1.00;;;;;;;;;;5027380;28;20069;-77
2024/01/24 00:21:17;;;;;;;7.13;1.00;;;;;;;;;;5028142;28;20030;-75
2024/01/24 00:23:44;;;;;;;4.00;1.10;;;;;;;;;;5032982;28;20038;-76
2024/01/24 00:26:12;;;;;;;3.93;0.83;;;;;;;;;;5031727;28;20037;-77
2024/01/24 00:28:38;;;;;;;2.00;0.70;;;;;;;;;;5031783;28;20635;-75
2024/01/24 00:31:08;;;;;;;6.53;0.83;;;;;;;;;;5043139;28;20054;-79
2024/01/24 00:33:37;;;;;;;8.23;1.20;;;;;;;;;;5046325;28;20091;-76
2024/01/24 00:36:05;;;;;;;4.33;1.17;;;;;;;;;;5033281;28;20014;-78
2024/01/24 00:38:34;;;;;;;3.17;1.10;;;;;;;;;;5033068;28;20057;-79
2024/01/24 00:41:02;;;;;;;3.97;0.87;;;;;;;;;;5026460;28;20042;-80
2024/01/24 00:43:34;;;;;;;7.43;1.73;;;;;;;;;;5044782;28;20122;-76
2024/01/24 00:46:02;;;;;;;7.43;1.23;;;;;;;;;;5025234;28;20093;-75
2024/01/24 00:48:36;;;;;;;4.77;1.20;;;;;;;;;;5025201;28;20277;-75
2024/01/24 00:51:05;;;;;;;5.60;1.50;;;;;;;;;;5028117;28;20064;-79
2024/01/24 00:53:41;;;;;;;7.43;1.50;;;;;;;;;;5027871;28;20462;-78
2024/01/24 00:56:07;;;;;;;5.80;1.47;;;;;;;;;;5028459;28;20037;-78
2024/01/24 00:58:33;;;;;;;4.87;1.50;;;;;;;;;;5025104;28;20041;-80
2024/01/24 01:00:59;;;;;;;5.83;1.40;;;;;;;;;;5048835;28;20030;-77
2024/01/24 01:03:30;;;;;;;3.03;1.00;;;;;;;;;;5029583;28;20034;-77
2024/01/24 01:05:56;;;;;;;5.97;1.70;;;;;;;;;;5030773;28;20045;-78
2024/01/24 01:08:26;;;;;;;5.83;1.03;;;;;;;;;;5029845;28;20037;-81
2024/01/24 01:10:52;;;;;;;6.43;1.30;;;;;;;;;;5028677;28;20037;-80
2024/01/24 01:13:18;;;;;;;5.20;1.60;;;;;;;;;;5028703;28;20094;-79
2024/01/24 01:15:46;;;;;;;5.37;1.63;;;;;;;;;;5027147;28;20026;-75
2024/01/24 01:18:12;;;;;;;8.70;2.63;;;;;;;;;;5026589;28;20076;-79
2024/01/24 01:20:38;;;;;;;4.10;1.30;;;;;;;;;;5003890;28;20023;-76
2024/01/24 01:23:07;;;;;;;9.70;2.17;;;;;;;;;;5009079;28;20050;-77
2024/01/24 01:25:33;;;;;;;8.17;1.50;;;;;;;;;;5007680;28;20038;-75
2024/01/24 01:27:59;;;;;;;5.03;1.23;;;;;;;;;;4991344;28;20042;-80
2024/01/24 01:30:25;;;;;;;8.03;1.77;;;;;;;;;;5002895;28;20038;-79
2024/01/24 01:32:51;;;;;;;5.60;1.07;;;;;;;;;;5006325;28;20065;-77
2024/01/24 01:35:20;;;;;;;4.40;1.60;;;;;;;;;;5004930;28;20072;-77
2024/01/24 01:37:46;;;;;;;4.67;1.27;;;;;;;;;;4986127;28;20081;-81
2024/01/24 01:40:13;;;;;;;4.93;1.23;;;;;;;;;;4985591;28;20034;-77
2024/01/24 01:42:44;;;;;;;5.27;1.17;;;;;;;;;;5002940;28;20046;-80
2024/01/24 01:45:10;;;;;;;5.40;1.10;;;;;;;;;;5006259;28;20042;-77
2024/01/24 01:47:36;;;;;;;3.77;1.10;;;;;;;;;;4994170;28;20098;-75
2024/01/24 01:50:04;;;;;;;2.57;1.20;;;;;;;;;;5006255;28;20049;-75
2024/01/24 01:52:31;;;;;;;3.90;1.07;;;;;;;;;;5027877;28;20065;-74
2024/01/24 01:55:00;;;;;;;4.93;1.63;;;;;;;;;;5049056;28;20096;-75
2024/01/24 01:57:26;;;;;;;5.90;1.40;;;;;;;;;;5032571;28;20032;-76
2024/01/24 01:59:52;;;;;;;4.27;1.30;;;;;;;;;;5032785;28;20037;-75
2024/01/24 02:02:18;;;;;;;5.30;1.27;;;;;;;;;;5024915;28;20090;-76
2024/01/24 02:04:44;;;;;;;7.13;1.27;;;;;;;;;;5032936;28;20024;-74
2024/01/24 02:07:12;;;;;;;5.60;1.43;;;;;;;;;;5033087;28;20033;-76
2024/01/24 02:09:40;;;;;;;6.77;1.50;;;;;;;;;;5032458;28;20013;-75
2024/01/24 02:12:06;;;;;;;3.03;1.30;;;;;;;;;;5025962;28;20053;-75
2024/01/24 02:14:32;;;;;;;4.60;1.00;;;;;;;;;;5032060;28;20014;-77
2024/01/24 02:17:01;;;;;;;3.27;1.07;;;;;;;;;;5031192;28;20089;-76
2024/01/24 02:19:27;;;;;;;3.60;1.03;;;;;;;;;;5030678;28;20057;-75
2024/01/24 02:21:53;;;;;;;2.33;0.90;;;;;;;;;;5032436;28;20014;-76
2024/01/24 02:24:19;;;;;;;5.17;1.30;;;;;;;;;;5031777;28;20026;-76
2024/01/24 02:26:45;;;;;;;5.13;1.30;;;;;;;;;;5031680;28;20034;-79
2024/01/24 02:29:11;;;;;;;1.93;0.90;;;;;;;;;;5028737;28;20029;-74
2024/01/24 02:31:37;;;;;;;3.83;0.80;;;;;;;;;;5031818;28;20033;-78
2024/01/24 02:34:03;;;;;;;2.73;1.27;;;;;;;;;;5026701;28;20113;-78
2024/01/24 02:36:32;;;;;;;4.47;1.00;;;;;;;;;;5031717;28;20049;-74
2024/01/24 02:38:58;;;;;;;2.73;0.80;;;;;;;;;;5025621;28;20053;-75
2024/01/24 02:41:26;;;;;;;3.97;0.90;;;;;;;;;;5026870;28;20018;-76
2024/01/24 02:43:52;;;;;;;1.63;0.70;;;;;;;;;;5031163;28;20046;-76
2024/01/24 02:46:18;;;;;;;3.47;0.70;;;;;;;;;;5030678;28;20026;-79
2024/01/24 02:48:44;;;;;;;1.33;0.47;;;;;;;;;;5032008;28;20022;-76
2024/01/24 02:51:10;;;;;;;6.60;0.77;;;;;;;;;;5031252;28;20041;-73
2024/01/24 02:53:39;;;;;;;4.37;0.70;;;;;;;;;;5045973;28;20018;-75
2024/01/24 02:56:05;;;;;;;2.93;0.60;;;;;;;;;;5032024;28;20026;-73
2024/01/24 02:58:33;;;;;;;1.10;0.50;;;;;;;;;;5022363;28;20036;-76
2024/01/24 03:00:59;;;;;;;1.37;0.53;;;;;;;;;;5030813;28;20022;-77
2024/01/24 03:03:25;;;;;;;0.67;0.30;;;;;;;;;;5030456;28;20216;-74
2024/01/24 03:05:51;;;;;;;3.53;0.87;;;;;;;;;;5027310;28;20030;-74
2024/01/24 03:08:17;;;;;;;1.57;0.30;;;;;;;;;;5029033;28;20037;-74
2024/01/24 03:10:43;;;;;;;2.30;0.30;;;;;;;;;;5034645;28;20032;-75
2024/01/24 03:13:09;;;;;;;2.77;0.30;;;;;;;;;;5032369;28;20030;-74
2024/01/24 03:15:37;;;;;;;0.80;0.23;;;;;;;;;;5033619;28;20037;-76
2024/01/24 03:18:03;;;;;;;1.33;0.30;;;;;;;;;;5032954;28;20042;-74
2024/01/24 03:20:29;;;;;;;1.83;0.70;;;;;;;;;;5027436;28;20053;-75
2024/01/24 03:22:55;;;;;;;0.63;0.20;;;;;;;;;;5033935;28;20033;-75
2024/01/24 03:25:21;;;;;;;1.00;0.27;;;;;;;;;;5028463;28;20037;-78
2024/01/24 03:27:49;;;;;;;1.30;0.40;;;;;;;;;;5033027;28;20030;-75
2024/01/24 03:30:15;;;;;;;2.63;0.43;;;;;;;;;;5033839;28;20014;-74
2024/01/24 03:32:42;;;;;;;3.03;0.50;;;;;;;;;;5045612;28;20026;-75
2024/01/24 03:35:10;;;;;;;0.60;0.23;;;;;;;;;;5033612;28;20025;-75
2024/01/24 03:37:36;;;;;;;0.90;0.40;;;;;;;;;;5027836;28;20026;-75
2024/01/24 03:40:04;;;;;;;0.68;0.28;;;;;;;;;;5032886;28;20041;-75
2024/01/24 03:42:32;;;;;;;1.27;0.30;;;;;;;;;;5033264;28;20033;-76
2024/01/24 03:44:58;;;;;;;0.80;0.20;;;;;;;;;;5032809;28;20025;-78
2024/01/24 03:47:24;;;;;;;1.13;0.17;;;;;;;;;;5026501;28;20041;-75
2024/01/24 03:49:50;;;;;;;0.43;0.20;;;;;;;;;;5026091;28;20313;-75
2024/01/24 03:52:19;;;;;;;0.70;0.10;;;;;;;;;;5033075;28;20042;-79
2024/01/24 03:54:45;;;;;;;1.07;0.30;;;;;;;;;;5045149;28;20085;-74
2024/01/24 03:57:11;;;;;;;1.07;0.23;;;;;;;;;;5033643;28;20034;-76
2024/01/24 03:59:37;;;;;;;0.20;0.10;;;;;;;;;;5033681;28;20034;-78
2024/01/24 04:02:03;;;;;;;0.70;0.20;;;;;;;;;;5033310;28;20010;-74
2024/01/24 04:04:32;;;;;;;0.13;0.10;;;;;;;;;;5034250;28;20118;-75
2024/01/24 04:06:58;;;;;;;2.30;0.10;;;;;;;;;;5033456;28;20022;-74
2024/01/24 04:09:24;;;;;;;1.23;0.30;;;;;;;;;;5033276;28;20033;-74
2024/01/24 04:11:50;;;;;;;0.80;0.40;;;;;;;;;;5033910;28;20030;-75
2024/01/24 04:14:16;;;;;;;0.50;0.20;;;;;;;;;;5033747;28;20022;-77
2024/01/24 04:16:42;;;;;;;0.60;0.10;;;;;;;;;;5033578;28;20022;-76
2024/01/24 04:19:08;;;;;;;0.97;0.20;;;;;;;;;;5024740;28;20041;-77
2024/01/24 04:21:40;;;;;;;0.20;0.20;;;;;;;;;;5031114;28;20022;-75
2024/01/24 04:24:06;;;;;;;0.20;0.10;;;;;;;;;;5026605;28;20049;-75
2024/01/24 04:26:35;;;;;;;0.20;0.07;;;;;;;;;;5043270;28;20050;-79
2024/01/24 04:29:02;;;;;;;0.43;0.23;;;;;;;;;;5025298;28;20085;-76
2024/01/24 04:31:27;;;;;;;0.23;0.10;;;;;;;;;;5028680;28;20033;-74
2024/01/24 04:33:55;;;;;;;0.60;0.30;;;;;;;;;;5024986;28;20010;-77
2024/01/24 04:36:23;;;;;;;1.47;0.40;;;;;;;;;;5032702;28;20045;-75
2024/01/24 04:38:51;;;;;;;0.30;0.10;;;;;;;;;;5025874;28;20030;-75
2024/01/24 04:41:17;;;;;;;0.67;0.10;;;;;;;;;;5028170;28;20128;-80
2024/01/24 04:43:43;;;;;;;0.10;0.10;;;;;;;;;;5025755;28;20030;-82
2024/01/24 04:46:14;;;;;;;0.40;0.20;;;;;;;;;;5036987;28;20049;-81
2024/01/24 04:48:41;;;;;;;0.23;0.13;;;;;;;;;;5030845;28;20034;-81
2024/01/24 04:51:10;;;;;;;1.03;0.10;;;;;;;;;;5034821;28;20024;-82
2024/01/24 04:53:37;;;;;;;0.10;0.10;;;;;;;;;;5036463;28;20016;-80
2024/01/24 04:56:03;;;;;;;1.33;0.10;;;;;;;;;;5034601;28;20044;-81
2024/01/24 04:58:29;;;;;;;0.93;0.40;;;;;;;;;;5015101;28;20027;-80
2024/01/24 05:00:55;;;;;;;0.63;0.20;;;;;;;;;;5014748;28;20026;-84
2024/01/24 05:03:21;;;;;;;0.40;0.30;;;;;;;;;;5026268;28;20037;-79
2024/01/24 05:05:48;;;;;;;0.23;0.17;;;;;;;;;;5035091;28;20026;-83
2024/01/24 05:08:14;;;;;;;2.93;0.10;;;;;;;;;;5034900;28;20041;-81
2024/01/24 05:10:40;;;;;;;0.10;0.10;;;;;;;;;;5032559;28;20026;-79
2024/01/24 05:13:06;;;;;;;0.40;0.20;;;;;;;;;;5033313;28;20034;-79
2024/01/24 05:15:35;;;;;;;1.60;0.20;;;;;;;;;;5034278;28;20034;-81
2024/01/24 05:18:01;;;;;;;0.40;0.20;;;;;;;;;;5038466;28;20025;-80
2024/01/24 05:20:27;;;;;;;0.20;0.10;;;;;;;;;;5035589;28;20034;-79
2024/01/24 05:22:53;;;;;;;0.10;0.10;;;;;;;;;;5034269;28;20010;-82
2024/01/24 05:25:19;;;;;;;0.83;0.27;;;;;;;;;;5033915;28;20034;-82
2024/01/24 05:27:45;;;;;;;3.43;0.30;;;;;;;;;;5029855;28;20030;-80
